Hauptseite
METAR-TAF:

METAR-TAF

Flughäfen :

Flughafen Friedrichshafen

Friedrichshafen, Deutschland

Breite: 47-40N, Länge: 009-31E, Höhe: 416 m

Beobachtung

Neuester Wetterbericht von vor 28 Minuten, um 18:50 UTC
Wind 2 kt aus Nordost
Temperatur 24°C
Luftfeuchtigkeit 57%
Luftdruck 1019 hPa
Sichtweite 10 km oder mehr

METAR: EDNY 191850Z AUTO 05002KT 9999 // SCT086/// 24/15 Q1019

Zeit: 21:18 (19:18 UTC)

Prognose

Neuester Wetterbericht von vor 2 Stunden und 18 Minuten, um 17:00 UTC
Gültige Prognose vom 19 um 18 UTC bis 20 um 18 UTC
Wind 5 kt aus Süd/Südwest
Sichtweite 10 km oder mehr
keine Wolken unter 1500 m und keine Kumulonimbus oder Gewitterwolken
Übergehend zu
vom 19 um 18 UTC bis 19 um 20 UTC
Wind 3 kt aus Nordost
Übergehend zu
vom 20 um 10 UTC bis 20 um 12 UTC
Wind 5 kt aus Südwest

TAF: EDNY 191700Z 1918/2018 21005KT CAVOK BECMG 1918/1920 04003KT BECMG 2010/2012 23005KT

Wetterbeobachtungen und Prognosen von mehr als 4000 Flughäfen (METAR und TAF Bericht).

Die verfügbaren Stationen werden durch gelbe und rote Markierungen auf der Karte dargestellt.

Führen Sie die Maus auf sie, um den Namen der Station zu sehen.

Darauf klicken, um die Beobachtung von Wetterbeobachtungen und Prognosen zu sehen.

Um die Karte zu ändern : klicken Sie auf den grünen Tasten mit einem schwarzen Kreuz Zum Vergrößern, auf den grünen Button mit einem Gedankenstrich zu verkleinern, oder auf die grünen Pfeile für benachbarte Karten.


METAR-TAF: